sensor_id;sensor_type;location;lat;lon;timestamp;temperature;humidity
2945;DHT22;1482;51.398;7.128;2023-08-31T00:00:09;13.20;99.90
2945;DHT22;1482;51.398;7.128;2023-08-31T00:02:35;13.20;99.90
2945;DHT22;1482;51.398;7.128;2023-08-31T00:05:01;13.20;99.90
2945;DHT22;1482;51.398;7.128;2023-08-31T00:07:27;13.20;99.90
2945;DHT22;1482;51.398;7.128;2023-08-31T00:09:52;13.10;99.90
2945;DHT22;1482;51.398;7.128;2023-08-31T00:12:18;13.10;99.90
2945;DHT22;1482;51.398;7.128;2023-08-31T00:14:43;13.00;99.90
2945;DHT22;1482;51.398;7.128;2023-08-31T00:17:09;13.00;99.90
2945;DHT22;1482;51.398;7.128;2023-08-31T00:19:34;13.00;99.90
2945;DHT22;1482;51.398;7.128;2023-08-31T00:22:00;13.00;99.90
2945;DHT22;1482;51.398;7.128;2023-08-31T00:24:26;13.00;99.90
2945;DHT22;1482;51.398;7.128;2023-08-31T00:26:56;13.00;99.90
2945;DHT22;1482;51.398;7.128;2023-08-31T00:29:22;13.00;99.90
2945;DHT22;1482;51.398;7.128;2023-08-31T00:31:48;13.00;99.90
2945;DHT22;1482;51.398;7.128;2023-08-31T00:34:16;13.00;99.90
2945;DHT22;1482;51.398;7.128;2023-08-31T00:36:43;13.00;99.90
2945;DHT22;1482;51.398;7.128;2023-08-31T00:39:08;13.00;99.90
2945;DHT22;1482;51.398;7.128;2023-08-31T00:41:36;13.00;99.90
2945;DHT22;1482;51.398;7.128;2023-08-31T00:44:02;13.00;99.90
2945;DHT22;1482;51.398;7.128;2023-08-31T00:46:30;12.90;99.90
2945;DHT22;1482;51.398;7.128;2023-08-31T00:48:56;12.90;99.90
2945;DHT22;1482;51.398;7.128;2023-08-31T00:51:23;12.90;1.00
2945;DHT22;1482;51.398;7.128;2023-08-31T00:53:50;12.90;1.00
2945;DHT22;1482;51.398;7.128;2023-08-31T00:56:18;12.80;1.00
2945;DHT22;1482;51.398;7.128;2023-08-31T00:58:44;12.90;1.00
2945;DHT22;1482;51.398;7.128;2023-08-31T01:03:50;12.90;1.00
2945;DHT22;1482;51.398;7.128;2023-08-31T01:06:41;13.00;1.00
2945;DHT22;1482;51.398;7.128;2023-08-31T01:09:36;13.00;1.00
2945;DHT22;1482;51.398;7.128;2023-08-31T01:12:09;13.00;1.00
2945;DHT22;1482;51.398;7.128;2023-08-31T01:14:56;13.00;1.00
2945;DHT22;1482;51.398;7.128;2023-08-31T01:17:28;13.00;99.90
2945;DHT22;1482;51.398;7.128;2023-08-31T01:19:57;13.00;1.00
2945;DHT22;1482;51.398;7.128;2023-08-31T01:22:40;13.00;1.00
2945;DHT22;1482;51.398;7.128;2023-08-31T01:25:08;13.00;1.00
2945;DHT22;1482;51.398;7.128;2023-08-31T01:27:35;13.00;1.00
2945;DHT22;1482;51.398;7.128;2023-08-31T01:30:02;13.00;1.00
2945;DHT22;1482;51.398;7.128;2023-08-31T01:32:29;13.00;1.00
2945;DHT22;1482;51.398;7.128;2023-08-31T01:34:55;12.90;1.00
2945;DHT22;1482;51.398;7.128;2023-08-31T01:37:52;12.90;1.00
2945;DHT22;1482;51.398;7.128;2023-08-31T01:40:36;12.90;1.00
2945;DHT22;1482;51.398;7.128;2023-08-31T01:43:04;12.90;1.00
2945;DHT22;1482;51.398;7.128;2023-08-31T01:45:32;12.80;1.00
2945;DHT22;1482;51.398;7.128;2023-08-31T01:47:59;12.70;1.00
2945;DHT22;1482;51.398;7.128;2023-08-31T01:50:25;12.60;1.00
2945;DHT22;1482;51.398;7.128;2023-08-31T01:52:51;12.60;1.00
2945;DHT22;1482;51.398;7.128;2023-08-31T01:55:18;12.60;1.00
2945;DHT22;1482;51.398;7.128;2023-08-31T01:57:44;12.60;1.00
2945;DHT22;1482;51.398;7.128;2023-08-31T02:00:10;12.60;1.00
2945;DHT22;1482;51.398;7.128;2023-08-31T02:02:36;12.50;1.00
2945;DHT22;1482;51.398;7.128;2023-08-31T02:05:02;12.50;1.00
2945;DHT22;1482;51.398;7.128;2023-08-31T02:07:29;12.50;1.00
2945;DHT22;1482;51.398;7.128;2023-08-31T02:09:55;12.50;1.00
2945;DHT22;1482;51.398;7.128;2023-08-31T02:12:21;12.50;1.00
2945;DHT22;1482;51.398;7.128;2023-08-31T02:14:46;12.50;1.00
2945;DHT22;1482;51.398;7.128;2023-08-31T02:17:12;12.40;1.00
2945;DHT22;1482;51.398;7.128;2023-08-31T02:19:37;12.40;1.00
2945;DHT22;1482;51.398;7.128;2023-08-31T02:22:03;12.40;1.00
2945;DHT22;1482;51.398;7.128;2023-08-31T02:24:29;12.30;1.00
2945;DHT22;1482;51.398;7.128;2023-08-31T02:26:56;12.30;1.00
2945;DHT22;1482;51.398;7.128;2023-08-31T02:29:21;12.40;15.70
2945;DHT22;1482;51.398;7.128;2023-08-31T02:31:47;12.40;1.00
2945;DHT22;1482;51.398;7.128;2023-08-31T02:34:12;12.40;25.20
2945;DHT22;1482;51.398;7.128;2023-08-31T02:36:38;12.40;74.60
2945;DHT22;1482;51.398;7.128;2023-08-31T02:39:03;12.40;1.00
2945;DHT22;1482;51.398;7.128;2023-08-31T02:41:29;12.40;1.00
2945;DHT22;1482;51.398;7.128;2023-08-31T02:43:55;12.40;1.00
2945;DHT22;1482;51.398;7.128;2023-08-31T02:46:20;12.40;1.00
2945;DHT22;1482;51.398;7.128;2023-08-31T02:48:46;12.30;1.00
2945;DHT22;1482;51.398;7.128;2023-08-31T02:51:12;12.30;1.00
2945;DHT22;1482;51.398;7.128;2023-08-31T02:53:37;12.30;1.00
2945;DHT22;1482;51.398;7.128;2023-08-31T02:56:03;12.20;1.00
2945;DHT22;1482;51.398;7.128;2023-08-31T02:58:29;12.10;1.00
2945;DHT22;1482;51.398;7.128;2023-08-31T03:00:54;12.20;20.10
2945;DHT22;1482;51.398;7.128;2023-08-31T03:03:21;12.20;58.30
2945;DHT22;1482;51.398;7.128;2023-08-31T03:05:46;12.20;20.80
2945;DHT22;1482;51.398;7.128;2023-08-31T03:08:12;12.20;99.90
2945;DHT22;1482;51.398;7.128;2023-08-31T03:10:38;12.20;99.90
2945;DHT22;1482;51.398;7.128;2023-08-31T03:13:04;12.20;96.70
2945;DHT22;1482;51.398;7.128;2023-08-31T03:15:33;12.20;99.90
2945;DHT22;1482;51.398;7.128;2023-08-31T03:18:01;12.20;99.90
2945;DHT22;1482;51.398;7.128;2023-08-31T03:20:27;12.30;72.90
2945;DHT22;1482;51.398;7.128;2023-08-31T03:22:53;12.30;77.00
2945;DHT22;1482;51.398;7.128;2023-08-31T03:25:18;12.20;99.90
2945;DHT22;1482;51.398;7.128;2023-08-31T03:27:44;12.20;99.90
2945;DHT22;1482;51.398;7.128;2023-08-31T03:30:09;12.20;99.90
2945;DHT22;1482;51.398;7.128;2023-08-31T03:32:35;12.20;99.90
2945;DHT22;1482;51.398;7.128;2023-08-31T03:35:04;12.20;99.90
2945;DHT22;1482;51.398;7.128;2023-08-31T03:37:30;12.20;85.30
2945;DHT22;1482;51.398;7.128;2023-08-31T03:39:55;12.20;99.90
2945;DHT22;1482;51.398;7.128;2023-08-31T03:42:21;12.20;99.90
2945;DHT22;1482;51.398;7.128;2023-08-31T03:44:47;12.20;99.90
2945;DHT22;1482;51.398;7.128;2023-08-31T03:47:12;12.20;99.90
2945;DHT22;1482;51.398;7.128;2023-08-31T03:49:38;12.30;99.90
2945;DHT22;1482;51.398;7.128;2023-08-31T03:52:03;12.30;99.90
2945;DHT22;1482;51.398;7.128;2023-08-31T03:54:29;12.40;99.90
2945;DHT22;1482;51.398;7.128;2023-08-31T03:56:54;12.40;99.90
2945;DHT22;1482;51.398;7.128;2023-08-31T03:59:20;12.40;99.90
2945;DHT22;1482;51.398;7.128;2023-08-31T04:01:45;12.40;99.90
2945;DHT22;1482;51.398;7.128;2023-08-31T04:04:12;12.40;99.90
2945;DHT22;1482;51.398;7.128;2023-08-31T04:06:37;12.40;99.90
2945;DHT22;1482;51.398;7.128;2023-08-31T04:09:03;12.50;99.90
2945;DHT22;1482;51.398;7.128;2023-08-31T04:11:29;12.50;48.00
2945;DHT22;1482;51.398;7.128;2023-08-31T04:13:55;12.40;95.40
2945;DHT22;1482;51.398;7.128;2023-08-31T04:16:20;12.40;67.80
2945;DHT22;1482;51.398;7.128;2023-08-31T04:18:46;12.40;99.90
2945;DHT22;1482;51.398;7.128;2023-08-31T04:21:17;12.40;99.90
2945;DHT22;1482;51.398;7.128;2023-08-31T04:23:42;12.40;99.90
2945;DHT22;1482;51.398;7.128;2023-08-31T04:26:12;12.30;99.90
2945;DHT22;1482;51.398;7.128;2023-08-31T04:28:39;12.20;99.90
2945;DHT22;1482;51.398;7.128;2023-08-31T04:31:06;12.20;99.90
2945;DHT22;1482;51.398;7.128;2023-08-31T04:33:37;12.20;99.90
2945;DHT22;1482;51.398;7.128;2023-08-31T04:36:04;12.20;99.90
2945;DHT22;1482;51.398;7.128;2023-08-31T04:38:31;12.20;99.90
2945;DHT22;1482;51.398;7.128;2023-08-31T04:41:00;12.20;99.90
2945;DHT22;1482;51.398;7.128;2023-08-31T04:43:26;12.20;99.90
2945;DHT22;1482;51.398;7.128;2023-08-31T04:45:53;12.30;99.90
2945;DHT22;1482;51.398;7.128;2023-08-31T04:48:18;12.20;99.90
2945;DHT22;1482;51.398;7.128;2023-08-31T04:50:44;12.20;99.90
2945;DHT22;1482;51.398;7.128;2023-08-31T04:53:10;12.20;99.90
2945;DHT22;1482;51.398;7.128;2023-08-31T04:55:35;12.20;99.90
2945;DHT22;1482;51.398;7.128;2023-08-31T04:58:01;12.20;1.00
2945;DHT22;1482;51.398;7.128;2023-08-31T05:00:26;12.30;1.00
2945;DHT22;1482;51.398;7.128;2023-08-31T05:02:52;12.30;99.90
2945;DHT22;1482;51.398;7.128;2023-08-31T05:05:17;12.30;99.90
2945;DHT22;1482;51.398;7.128;2023-08-31T05:07:46;12.40;99.90
2945;DHT22;1482;51.398;7.128;2023-08-31T05:10:11;12.50;99.90
2945;DHT22;1482;51.398;7.128;2023-08-31T05:12:37;12.80;99.90
2945;DHT22;1482;51.398;7.128;2023-08-31T05:15:03;12.90;1.00
2945;DHT22;1482;51.398;7.128;2023-08-31T05:17:28;13.00;1.00
2945;DHT22;1482;51.398;7.128;2023-08-31T05:19:55;13.00;1.00
2945;DHT22;1482;51.398;7.128;2023-08-31T05:22:21;13.10;1.00
2945;DHT22;1482;51.398;7.128;2023-08-31T05:24:46;13.10;1.00
2945;DHT22;1482;51.398;7.128;2023-08-31T05:27:12;13.10;1.00
2945;DHT22;1482;51.398;7.128;2023-08-31T05:29:37;13.10;1.00
2945;DHT22;1482;51.398;7.128;2023-08-31T05:32:03;13.20;1.00
2945;DHT22;1482;51.398;7.128;2023-08-31T05:34:29;13.40;1.00
2945;DHT22;1482;51.398;7.128;2023-08-31T05:36:55;13.90;1.00
2945;DHT22;1482;51.398;7.128;2023-08-31T05:39:21;14.30;99.90
2945;DHT22;1482;51.398;7.128;2023-08-31T05:41:47;14.90;99.90
2945;DHT22;1482;51.398;7.128;2023-08-31T05:44:12;15.50;99.90
2945;DHT22;1482;51.398;7.128;2023-08-31T05:46:38;16.40;99.90
2945;DHT22;1482;51.398;7.128;2023-08-31T05:49:04;17.60;44.10
2945;DHT22;1482;51.398;7.128;2023-08-31T05:51:30;18.50;1.00
2945;DHT22;1482;51.398;7.128;2023-08-31T05:53:56;18.60;1.00
2945;DHT22;1482;51.398;7.128;2023-08-31T05:56:21;18.30;1.00
2945;DHT22;1482;51.398;7.128;2023-08-31T05:58:47;18.50;1.00
2945;DHT22;1482;51.398;7.128;2023-08-31T06:01:12;18.70;1.00
2945;DHT22;1482;51.398;7.128;2023-08-31T06:03:38;18.60;1.00
2945;DHT22;1482;51.398;7.128;2023-08-31T06:06:03;18.60;1.00
2945;DHT22;1482;51.398;7.128;2023-08-31T06:08:29;18.30;1.00
2945;DHT22;1482;51.398;7.128;2023-08-31T06:10:56;18.60;1.00
2945;DHT22;1482;51.398;7.128;2023-08-31T06:13:22;19.90;1.00
2945;DHT22;1482;51.398;7.128;2023-08-31T06:15:47;22.20;1.00
2945;DHT22;1482;51.398;7.128;2023-08-31T06:18:13;24.50;1.00
2945;DHT22;1482;51.398;7.128;2023-08-31T06:20:39;25.70;1.00
2945;DHT22;1482;51.398;7.128;2023-08-31T06:23:05;26.30;1.00
2945;DHT22;1482;51.398;7.128;2023-08-31T06:25:30;27.20;1.00
2945;DHT22;1482;51.398;7.128;2023-08-31T06:27:57;28.20;1.00
2945;DHT22;1482;51.398;7.128;2023-08-31T06:30:23;28.60;1.00
2945;DHT22;1482;51.398;7.128;2023-08-31T06:32:48;28.90;1.00
2945;DHT22;1482;51.398;7.128;2023-08-31T06:35:15;30.20;1.00
2945;DHT22;1482;51.398;7.128;2023-08-31T06:37:41;30.50;1.00
2945;DHT22;1482;51.398;7.128;2023-08-31T06:40:08;31.00;1.00
2945;DHT22;1482;51.398;7.128;2023-08-31T06:42:35;31.30;1.00
2945;DHT22;1482;51.398;7.128;2023-08-31T06:45:01;31.70;1.00
2945;DHT22;1482;51.398;7.128;2023-08-31T06:47:26;33.10;1.00
2945;DHT22;1482;51.398;7.128;2023-08-31T06:49:52;34.60;1.00
2945;DHT22;1482;51.398;7.128;2023-08-31T06:52:18;35.00;1.00
2945;DHT22;1482;51.398;7.128;2023-08-31T06:54:43;36.00;1.00
2945;DHT22;1482;51.398;7.128;2023-08-31T06:57:09;36.80;1.00
2945;DHT22;1482;51.398;7.128;2023-08-31T06:59:35;36.80;1.00
2945;DHT22;1482;51.398;7.128;2023-08-31T07:02:00;37.30;1.00
2945;DHT22;1482;51.398;7.128;2023-08-31T07:04:29;37.80;1.00
2945;DHT22;1482;51.398;7.128;2023-08-31T07:06:54;37.90;1.00
2945;DHT22;1482;51.398;7.128;2023-08-31T07:09:20;38.50;1.00
2945;DHT22;1482;51.398;7.128;2023-08-31T07:11:45;37.00;1.00
2945;DHT22;1482;51.398;7.128;2023-08-31T07:14:11;36.50;1.00
2945;DHT22;1482;51.398;7.128;2023-08-31T07:16:36;37.50;1.00
2945;DHT22;1482;51.398;7.128;2023-08-31T07:19:02;37.90;1.00
2945;DHT22;1482;51.398;7.128;2023-08-31T07:21:28;38.70;1.00
2945;DHT22;1482;51.398;7.128;2023-08-31T07:23:53;39.30;1.00
2945;DHT22;1482;51.398;7.128;2023-08-31T07:26:20;41.00;1.00
2945;DHT22;1482;51.398;7.128;2023-08-31T07:28:46;40.40;1.00
2945;DHT22;1482;51.398;7.128;2023-08-31T07:31:12;41.70;1.00
2945;DHT22;1482;51.398;7.128;2023-08-31T07:33:38;41.50;1.00
2945;DHT22;1482;51.398;7.128;2023-08-31T07:36:04;42.40;1.00
2945;DHT22;1482;51.398;7.128;2023-08-31T07:38:31;42.70;1.00
2945;DHT22;1482;51.398;7.128;2023-08-31T07:40:57;42.50;1.00
2945;DHT22;1482;51.398;7.128;2023-08-31T07:43:22;42.10;1.00
2945;DHT22;1482;51.398;7.128;2023-08-31T07:45:49;41.90;1.00
2945;DHT22;1482;51.398;7.128;2023-08-31T07:48:14;43.10;1.00
2945;DHT22;1482;51.398;7.128;2023-08-31T07:50:41;42.60;1.00
2945;DHT22;1482;51.398;7.128;2023-08-31T07:53:07;43.00;1.00
2945;DHT22;1482;51.398;7.128;2023-08-31T07:55:33;42.50;1.00
2945;DHT22;1482;51.398;7.128;2023-08-31T07:58:00;42.90;1.00
2945;DHT22;1482;51.398;7.128;2023-08-31T08:00:26;43.50;1.00
2945;DHT22;1482;51.398;7.128;2023-08-31T08:02:52;43.50;1.00
2945;DHT22;1482;51.398;7.128;2023-08-31T08:05:17;43.60;1.00
2945;DHT22;1482;51.398;7.128;2023-08-31T08:07:43;43.50;1.00
2945;DHT22;1482;51.398;7.128;2023-08-31T08:10:11;42.90;1.00
2945;DHT22;1482;51.398;7.128;2023-08-31T08:12:38;43.00;1.00
2945;DHT22;1482;51.398;7.128;2023-08-31T08:15:05;42.60;1.00
2945;DHT22;1482;51.398;7.128;2023-08-31T08:17:32;42.90;1.00
2945;DHT22;1482;51.398;7.128;2023-08-31T08:19:57;44.10;1.00
2945;DHT22;1482;51.398;7.128;2023-08-31T08:22:24;43.80;1.00
2945;DHT22;1482;51.398;7.128;2023-08-31T08:24:50;42.70;1.00
2945;DHT22;1482;51.398;7.128;2023-08-31T08:27:16;40.00;1.00
2945;DHT22;1482;51.398;7.128;2023-08-31T08:29:43;37.70;1.00
2945;DHT22;1482;51.398;7.128;2023-08-31T08:32:09;35.90;1.00
2945;DHT22;1482;51.398;7.128;2023-08-31T08:34:34;33.80;1.00
2945;DHT22;1482;51.398;7.128;2023-08-31T08:37:00;32.60;1.00
2945;DHT22;1482;51.398;7.128;2023-08-31T08:39:25;31.80;1.00
2945;DHT22;1482;51.398;7.128;2023-08-31T08:41:54;30.40;1.00
2945;DHT22;1482;51.398;7.128;2023-08-31T08:44:22;29.90;1.00
2945;DHT22;1482;51.398;7.128;2023-08-31T08:46:51;29.00;1.00
2945;DHT22;1482;51.398;7.128;2023-08-31T08:49:18;28.40;1.00
2945;DHT22;1482;51.398;7.128;2023-08-31T08:51:48;28.00;1.00
2945;DHT22;1482;51.398;7.128;2023-08-31T08:54:16;28.20;1.00
2945;DHT22;1482;51.398;7.128;2023-08-31T08:56:42;27.70;1.00
2945;DHT22;1482;51.398;7.128;2023-08-31T08:59:08;27.10;1.00
2945;DHT22;1482;51.398;7.128;2023-08-31T09:01:38;27.00;1.00
2945;DHT22;1482;51.398;7.128;2023-08-31T09:04:04;27.10;1.00
2945;DHT22;1482;51.398;7.128;2023-08-31T09:06:29;26.80;1.00
2945;DHT22;1482;51.398;7.128;2023-08-31T09:08:55;26.70;1.00
2945;DHT22;1482;51.398;7.128;2023-08-31T09:11:22;26.70;1.00
2945;DHT22;1482;51.398;7.128;2023-08-31T09:13:48;26.40;1.00
2945;DHT22;1482;51.398;7.128;2023-08-31T09:16:28;26.20;1.00
2945;DHT22;1482;51.398;7.128;2023-08-31T09:18:58;26.40;1.00
2945;DHT22;1482;51.398;7.128;2023-08-31T09:21:37;26.50;1.00
2945;DHT22;1482;51.398;7.128;2023-08-31T09:24:05;26.40;1.00
2945;DHT22;1482;51.398;7.128;2023-08-31T09:26:37;25.80;1.00
2945;DHT22;1482;51.398;7.128;2023-08-31T09:29:04;25.80;1.00
2945;DHT22;1482;51.398;7.128;2023-08-31T09:31:30;25.60;1.00
2945;DHT22;1482;51.398;7.128;2023-08-31T09:33:56;25.80;1.00
2945;DHT22;1482;51.398;7.128;2023-08-31T09:36:22;26.00;1.00
2945;DHT22;1482;51.398;7.128;2023-08-31T09:38:48;26.10;1.00
2945;DHT22;1482;51.398;7.128;2023-08-31T09:41:14;26.00;1.00
2945;DHT22;1482;51.398;7.128;2023-08-31T09:43:42;26.10;1.00
2945;DHT22;1482;51.398;7.128;2023-08-31T09:46:08;25.60;1.00
2945;DHT22;1482;51.398;7.128;2023-08-31T09:48:35;25.60;1.00
2945;DHT22;1482;51.398;7.128;2023-08-31T09:51:04;25.60;1.00
2945;DHT22;1482;51.398;7.128;2023-08-31T09:53:31;25.60;1.00
2945;DHT22;1482;51.398;7.128;2023-08-31T09:55:57;25.50;1.00
2945;DHT22;1482;51.398;7.128;2023-08-31T09:58:23;26.00;1.00
2945;DHT22;1482;51.398;7.128;2023-08-31T10:00:50;26.20;1.00
2945;DHT22;1482;51.398;7.128;2023-08-31T10:03:16;26.10;1.00
2945;DHT22;1482;51.398;7.128;2023-08-31T10:05:46;25.80;1.00
2945;DHT22;1482;51.398;7.128;2023-08-31T10:08:12;25.60;1.00
2945;DHT22;1482;51.398;7.128;2023-08-31T10:10:38;25.40;1.00
2945;DHT22;1482;51.398;7.128;2023-08-31T10:13:05;25.10;1.00
2945;DHT22;1482;51.398;7.128;2023-08-31T10:15:32;25.00;1.00
2945;DHT22;1482;51.398;7.128;2023-08-31T10:18:05;24.60;1.00
2945;DHT22;1482;51.398;7.128;2023-08-31T10:20:32;24.20;1.00
2945;DHT22;1482;51.398;7.128;2023-08-31T10:22:59;24.10;1.00
2945;DHT22;1482;51.398;7.128;2023-08-31T10:25:24;23.60;1.00
2945;DHT22;1482;51.398;7.128;2023-08-31T10:27:52;23.20;1.00
2945;DHT22;1482;51.398;7.128;2023-08-31T10:30:25;23.00;1.00
2945;DHT22;1482;51.398;7.128;2023-08-31T10:35:51;22.30;1.00
2945;DHT22;1482;51.398;7.128;2023-08-31T10:38:29;22.40;1.00
2945;DHT22;1482;51.398;7.128;2023-08-31T10:43:54;22.00;1.00
2945;DHT22;1482;51.398;7.128;2023-08-31T10:46:36;22.20;1.00
2945;DHT22;1482;51.398;7.128;2023-08-31T10:51:36;22.40;1.00
2945;DHT22;1482;51.398;7.128;2023-08-31T10:54:07;22.50;1.00
2945;DHT22;1482;51.398;7.128;2023-08-31T10:59:17;23.40;1.00
2945;DHT22;1482;51.398;7.128;2023-08-31T11:01:59;23.30;1.00
2945;DHT22;1482;51.398;7.128;2023-08-31T11:04:30;22.90;1.00
2945;DHT22;1482;51.398;7.128;2023-08-31T11:07:12;22.80;1.00
2945;DHT22;1482;51.398;7.128;2023-08-31T11:09:38;23.00;1.00
2945;DHT22;1482;51.398;7.128;2023-08-31T11:12:04;22.90;1.00
2945;DHT22;1482;51.398;7.128;2023-08-31T11:14:30;23.00;1.00
2945;DHT22;1482;51.398;7.128;2023-08-31T11:16:56;23.10;1.00
2945;DHT22;1482;51.398;7.128;2023-08-31T11:19:21;23.30;1.00
2945;DHT22;1482;51.398;7.128;2023-08-31T11:21:47;23.30;1.00
2945;DHT22;1482;51.398;7.128;2023-08-31T11:24:13;23.00;1.00
2945;DHT22;1482;51.398;7.128;2023-08-31T11:26:39;23.00;1.00
2945;DHT22;1482;51.398;7.128;2023-08-31T11:29:08;22.90;1.00
2945;DHT22;1482;51.398;7.128;2023-08-31T11:31:38;22.90;1.00
2945;DHT22;1482;51.398;7.128;2023-08-31T11:34:15;22.90;1.00
2945;DHT22;1482;51.398;7.128;2023-08-31T11:36:42;23.00;1.00
2945;DHT22;1482;51.398;7.128;2023-08-31T11:39:14;23.10;1.00
2945;DHT22;1482;51.398;7.128;2023-08-31T11:41:40;23.10;1.00
2945;DHT22;1482;51.398;7.128;2023-08-31T11:44:13;23.00;1.00
2945;DHT22;1482;51.398;7.128;2023-08-31T11:46:39;23.00;1.00
2945;DHT22;1482;51.398;7.128;2023-08-31T11:49:07;23.00;1.00
2945;DHT22;1482;51.398;7.128;2023-08-31T11:51:34;22.80;1.00
2945;DHT22;1482;51.398;7.128;2023-08-31T11:54:02;22.90;1.00
2945;DHT22;1482;51.398;7.128;2023-08-31T11:56:47;22.90;1.00
2945;DHT22;1482;51.398;7.128;2023-08-31T11:59:18;23.10;1.00
2945;DHT22;1482;51.398;7.128;2023-08-31T12:01:45;23.20;1.00
2945;DHT22;1482;51.398;7.128;2023-08-31T12:04:21;23.50;1.00
2945;DHT22;1482;51.398;7.128;2023-08-31T12:06:51;23.50;1.00
2945;DHT22;1482;51.398;7.128;2023-08-31T12:09:17;23.70;1.00
2945;DHT22;1482;51.398;7.128;2023-08-31T12:11:50;23.70;1.00
2945;DHT22;1482;51.398;7.128;2023-08-31T12:14:21;23.30;1.00
2945;DHT22;1482;51.398;7.128;2023-08-31T12:16:47;23.10;1.00
2945;DHT22;1482;51.398;7.128;2023-08-31T12:19:13;22.90;1.00
2945;DHT22;1482;51.398;7.128;2023-08-31T12:21:39;22.30;1.00
2945;DHT22;1482;51.398;7.128;2023-08-31T12:24:05;22.10;1.00
2945;DHT22;1482;51.398;7.128;2023-08-31T12:26:31;21.90;1.00
2945;DHT22;1482;51.398;7.128;2023-08-31T12:28:57;21.70;1.00
2945;DHT22;1482;51.398;7.128;2023-08-31T12:31:23;21.60;1.00
2945;DHT22;1482;51.398;7.128;2023-08-31T12:33:49;21.60;1.00
2945;DHT22;1482;51.398;7.128;2023-08-31T12:36:14;21.50;1.00
2945;DHT22;1482;51.398;7.128;2023-08-31T12:38:40;21.60;1.00
2945;DHT22;1482;51.398;7.128;2023-08-31T12:41:06;21.30;1.00
2945;DHT22;1482;51.398;7.128;2023-08-31T12:43:31;21.30;1.00
2945;DHT22;1482;51.398;7.128;2023-08-31T12:45:57;21.40;1.00
2945;DHT22;1482;51.398;7.128;2023-08-31T12:48:23;21.20;1.00
2945;DHT22;1482;51.398;7.128;2023-08-31T12:50:48;21.10;1.00
2945;DHT22;1482;51.398;7.128;2023-08-31T12:53:14;21.00;1.00
2945;DHT22;1482;51.398;7.128;2023-08-31T12:55:40;21.20;1.00
2945;DHT22;1482;51.398;7.128;2023-08-31T12:58:06;21.30;1.00
2945;DHT22;1482;51.398;7.128;2023-08-31T13:00:31;21.70;1.00
2945;DHT22;1482;51.398;7.128;2023-08-31T13:02:57;22.00;1.00
2945;DHT22;1482;51.398;7.128;2023-08-31T13:05:23;22.10;1.00
2945;DHT22;1482;51.398;7.128;2023-08-31T13:07:48;22.00;1.00
2945;DHT22;1482;51.398;7.128;2023-08-31T13:10:14;21.90;1.00
2945;DHT22;1482;51.398;7.128;2023-08-31T13:12:39;22.10;1.00
2945;DHT22;1482;51.398;7.128;2023-08-31T13:15:06;22.20;1.00
2945;DHT22;1482;51.398;7.128;2023-08-31T13:17:33;22.30;1.00
2945;DHT22;1482;51.398;7.128;2023-08-31T13:19:58;22.40;1.00
2945;DHT22;1482;51.398;7.128;2023-08-31T13:22:24;22.50;1.00
2945;DHT22;1482;51.398;7.128;2023-08-31T13:24:50;22.50;1.00
2945;DHT22;1482;51.398;7.128;2023-08-31T13:27:16;22.40;1.00
2945;DHT22;1482;51.398;7.128;2023-08-31T13:29:43;22.40;1.00
2945;DHT22;1482;51.398;7.128;2023-08-31T13:32:08;22.40;1.00
2945;DHT22;1482;51.398;7.128;2023-08-31T13:34:34;22.30;1.00
2945;DHT22;1482;51.398;7.128;2023-08-31T13:37:00;22.60;1.00
2945;DHT22;1482;51.398;7.128;2023-08-31T13:39:26;22.70;1.00
2945;DHT22;1482;51.398;7.128;2023-08-31T13:41:52;22.70;1.00
2945;DHT22;1482;51.398;7.128;2023-08-31T13:44:21;22.80;1.00
2945;DHT22;1482;51.398;7.128;2023-08-31T13:46:47;22.80;1.00
2945;DHT22;1482;51.398;7.128;2023-08-31T13:49:13;22.80;1.00
2945;DHT22;1482;51.398;7.128;2023-08-31T13:51:40;22.80;1.00
2945;DHT22;1482;51.398;7.128;2023-08-31T13:54:05;22.60;1.00
2945;DHT22;1482;51.398;7.128;2023-08-31T13:56:32;22.60;1.00
2945;DHT22;1482;51.398;7.128;2023-08-31T13:58:58;22.70;1.00
2945;DHT22;1482;51.398;7.128;2023-08-31T14:01:24;22.80;1.00
2945;DHT22;1482;51.398;7.128;2023-08-31T14:03:50;22.90;1.00
2945;DHT22;1482;51.398;7.128;2023-08-31T14:06:15;22.90;1.00
2945;DHT22;1482;51.398;7.128;2023-08-31T14:08:41;22.90;1.00
2945;DHT22;1482;51.398;7.128;2023-08-31T14:11:07;22.80;1.00
2945;DHT22;1482;51.398;7.128;2023-08-31T14:13:33;23.00;1.00
2945;DHT22;1482;51.398;7.128;2023-08-31T14:15:59;23.10;1.00
2945;DHT22;1482;51.398;7.128;2023-08-31T14:18:26;23.20;1.00
2945;DHT22;1482;51.398;7.128;2023-08-31T14:20:54;23.10;1.00
2945;DHT22;1482;51.398;7.128;2023-08-31T14:23:20;22.90;1.00
2945;DHT22;1482;51.398;7.128;2023-08-31T14:25:45;22.90;1.00
2945;DHT22;1482;51.398;7.128;2023-08-31T14:28:11;22.60;1.00
2945;DHT22;1482;51.398;7.128;2023-08-31T14:30:37;22.50;1.00
2945;DHT22;1482;51.398;7.128;2023-08-31T14:33:03;22.20;1.00
2945;DHT22;1482;51.398;7.128;2023-08-31T14:35:29;22.20;1.00
2945;DHT22;1482;51.398;7.128;2023-08-31T14:37:54;22.10;1.00
2945;DHT22;1482;51.398;7.128;2023-08-31T14:40:20;21.90;1.00
2945;DHT22;1482;51.398;7.128;2023-08-31T14:42:45;21.70;1.00
2945;DHT22;1482;51.398;7.128;2023-08-31T14:45:11;21.60;1.00
2945;DHT22;1482;51.398;7.128;2023-08-31T14:47:37;21.30;1.00
2945;DHT22;1482;51.398;7.128;2023-08-31T14:50:02;21.00;1.00
2945;DHT22;1482;51.398;7.128;2023-08-31T14:52:30;20.70;1.00
2945;DHT22;1482;51.398;7.128;2023-08-31T14:54:56;20.40;1.00
2945;DHT22;1482;51.398;7.128;2023-08-31T14:57:21;20.30;1.00
2945;DHT22;1482;51.398;7.128;2023-08-31T14:59:47;20.10;1.00
2945;DHT22;1482;51.398;7.128;2023-08-31T15:02:12;19.90;1.00
2945;DHT22;1482;51.398;7.128;2023-08-31T15:04:40;19.60;1.00
2945;DHT22;1482;51.398;7.128;2023-08-31T15:07:05;19.40;1.00
2945;DHT22;1482;51.398;7.128;2023-08-31T15:09:31;19.20;1.00
2945;DHT22;1482;51.398;7.128;2023-08-31T15:11:57;19.10;1.00
2945;DHT22;1482;51.398;7.128;2023-08-31T15:14:23;19.00;1.00
2945;DHT22;1482;51.398;7.128;2023-08-31T15:16:48;18.90;1.00
2945;DHT22;1482;51.398;7.128;2023-08-31T15:19:14;18.80;1.00
2945;DHT22;1482;51.398;7.128;2023-08-31T15:21:40;18.80;1.00
2945;DHT22;1482;51.398;7.128;2023-08-31T15:24:05;18.80;1.00
2945;DHT22;1482;51.398;7.128;2023-08-31T15:26:31;18.80;1.00
2945;DHT22;1482;51.398;7.128;2023-08-31T15:28:57;18.80;1.00
2945;DHT22;1482;51.398;7.128;2023-08-31T15:31:22;18.80;1.00
2945;DHT22;1482;51.398;7.128;2023-08-31T15:33:48;18.70;1.00
2945;DHT22;1482;51.398;7.128;2023-08-31T15:36:13;18.70;1.00
2945;DHT22;1482;51.398;7.128;2023-08-31T15:38:39;18.70;1.00
2945;DHT22;1482;51.398;7.128;2023-08-31T15:41:06;18.60;1.00
2945;DHT22;1482;51.398;7.128;2023-08-31T15:43:34;18.50;1.00
2945;DHT22;1482;51.398;7.128;2023-08-31T15:46:02;18.40;1.00
2945;DHT22;1482;51.398;7.128;2023-08-31T15:48:28;18.40;1.00
2945;DHT22;1482;51.398;7.128;2023-08-31T15:50:55;18.30;1.00
2945;DHT22;1482;51.398;7.128;2023-08-31T15:53:20;18.30;1.00
2945;DHT22;1482;51.398;7.128;2023-08-31T15:55:47;18.20;1.00
2945;DHT22;1482;51.398;7.128;2023-08-31T15:58:13;18.20;1.00
2945;DHT22;1482;51.398;7.128;2023-08-31T16:00:39;18.20;1.00
2945;DHT22;1482;51.398;7.128;2023-08-31T16:03:05;18.20;1.00
2945;DHT22;1482;51.398;7.128;2023-08-31T16:05:31;18.30;1.00
2945;DHT22;1482;51.398;7.128;2023-08-31T16:07:58;18.30;1.00
2945;DHT22;1482;51.398;7.128;2023-08-31T16:10:24;18.20;1.00
2945;DHT22;1482;51.398;7.128;2023-08-31T16:12:49;18.30;1.00
2945;DHT22;1482;51.398;7.128;2023-08-31T16:15:15;18.30;1.00
2945;DHT22;1482;51.398;7.128;2023-08-31T16:17:40;18.50;1.00
2945;DHT22;1482;51.398;7.128;2023-08-31T16:20:07;18.60;1.00
2945;DHT22;1482;51.398;7.128;2023-08-31T16:22:33;18.80;1.00
2945;DHT22;1482;51.398;7.128;2023-08-31T16:24:59;18.90;1.00